Time;durP1;ratioP1;P1;durP2;ratioP2;P2;SDS_P1;SDS_P2;PMS_P1;PMS_P2;Temp;Humidity;BMP_temperature;BMP_pressure;BME280_temperature;BME280_humidity;BME280_pressure;Samples;Min_cycle;Max_cycle;Signal;HPM_P1;HPM_P2
2024/02/02 00:00:14;;;;;;;29.08;13.32;;;;;;;3.17;79.69;93961.19;2075057;69;20166;-79
2024/02/02 00:02:40;;;;;;;23.40;13.50;;;;;;;3.25;79.62;93942.59;2074971;69;20156;-81
2024/02/02 00:05:06;;;;;;;29.63;14.27;;;;;;;3.26;79.53;93946.84;2075076;69;20207;-78
2024/02/02 00:07:33;;;;;;;25.23;13.63;;;;;;;3.23;79.87;93944.38;2075056;69;20534;-81
2024/02/02 00:09:59;;;;;;;29.85;13.18;;;;;;;2.72;81.01;93944.47;2074961;69;20139;-82
2024/02/02 00:12:25;;;;;;;25.23;12.75;;;;;;;2.77;82.25;93946.41;2074899;69;20258;-84
2024/02/02 00:14:51;;;;;;;24.83;12.70;;;;;;;3.00;81.04;93941.25;2074885;69;20166;-80
2024/02/02 00:17:19;;;;;;;21.48;12.05;;;;;;;3.08;80.92;93944.91;2074733;69;20298;-84
2024/02/02 00:19:45;;;;;;;25.25;13.13;;;;;;;3.15;79.73;93935.91;2074859;69;20247;-79
2024/02/02 00:22:11;;;;;;;23.33;12.85;;;;;;;3.21;79.93;93942.16;2074734;69;20159;-78
2024/02/02 00:24:37;;;;;;;21.88;12.10;;;;;;;3.21;79.10;93930.25;2075231;69;20198;-78
2024/02/02 00:27:02;;;;;;;23.17;12.27;;;;;;;3.23;79.25;93942.34;2075412;69;20144;-76
2024/02/02 00:29:28;;;;;;;23.85;12.95;;;;;;;3.11;80.11;93935.47;2074917;69;20542;-77
2024/02/02 00:31:54;;;;;;;22.50;12.50;;;;;;;3.23;79.69;93938.81;2075055;69;20170;-80
2024/02/02 00:34:20;;;;;;;24.58;12.10;;;;;;;3.17;79.46;93947.28;2075056;69;20148;-81
2024/02/02 00:36:45;;;;;;;20.02;11.23;;;;;;;3.23;79.35;93950.69;2074951;69;20159;-78
2024/02/02 00:39:12;;;;;;;20.35;11.73;;;;;;;2.97;80.07;93956.94;2071928;69;20210;-80
2024/02/02 00:41:37;;;;;;;20.90;11.73;;;;;;;3.13;79.79;93960.00;2075433;69;20175;-80
2024/02/02 00:44:04;;;;;;;22.48;11.40;;;;;;;3.20;79.48;93960.09;2075437;69;20140;-79
2024/02/02 00:46:29;;;;;;;20.35;11.90;;;;;;;2.83;79.88;93949.84;2075367;69;20238;-79
2024/02/02 00:48:55;;;;;;;20.55;11.43;;;;;;;3.15;79.77;93968.56;2075552;69;20235;-78
2024/02/02 00:51:21;;;;;;;20.58;11.68;;;;;;;3.17;79.36;93971.56;2072187;69;20909;-83
2024/02/02 00:53:47;;;;;;;20.20;11.30;;;;;;;3.25;79.43;93975.22;2075501;69;20147;-79
2024/02/02 00:56:13;;;;;;;21.98;12.10;;;;;;;3.21;79.13;93969.22;2072283;69;20163;-79
2024/02/02 00:58:39;;;;;;;22.15;11.15;;;;;;;3.16;79.57;93976.41;2075286;69;20703;-85
2024/02/02 01:01:05;;;;;;;22.38;11.38;;;;;;;3.14;79.56;93980.97;2075449;69;20144;-79
2024/02/02 01:03:33;;;;;;;24.20;11.50;;;;;;;3.15;79.73;93976.91;2075505;69;20124;-86
2024/02/02 01:06:00;;;;;;;21.00;11.20;;;;;;;2.99;80.34;93987.03;2071583;69;20159;-81
2024/02/02 01:08:26;;;;;;;20.48;11.35;;;;;;;3.03;79.49;93987.47;2075416;69;20144;-78
2024/02/02 01:10:53;;;;;;;20.80;11.40;;;;;;;2.82;80.16;93995.63;2075380;69;20143;-78
2024/02/02 01:13:20;;;;;;;19.55;11.00;;;;;;;2.93;80.01;93997.50;2075534;69;20164;-80
2024/02/02 01:15:50;;;;;;;19.35;10.85;;;;;;;2.93;79.70;93995.47;2075464;69;20170;-76
2024/02/02 01:18:18;;;;;;;20.58;11.07;;;;;;;2.94;79.45;93988.63;2075569;69;20142;-84
2024/02/02 01:20:44;;;;;;;19.30;10.52;;;;;;;2.85;79.55;93988.28;2072278;69;20667;-77
2024/02/02 01:23:11;;;;;;;18.90;10.05;;;;;;;2.89;79.33;93985.94;2075470;69;20176;-75
2024/02/02 01:25:40;;;;;;;19.30;10.65;;;;;;;2.88;79.59;93978.84;2075547;69;20136;-84
2024/02/02 01:28:06;;;;;;;19.27;10.48;;;;;;;2.75;79.50;93974.03;2075493;69;20186;-84
2024/02/02 01:30:32;;;;;;;16.73;10.35;;;;;;;2.70;79.71;93972.06;2072083;69;20174;-82
2024/02/02 01:32:58;;;;;;;18.60;9.98;;;;;;;2.78;79.67;93975.72;2071943;69;20171;-76
2024/02/02 01:35:24;;;;;;;19.10;10.02;;;;;;;2.82;78.49;93970.59;2075381;69;20235;-84
2024/02/02 01:37:50;;;;;;;19.38;11.18;;;;;;;2.62;79.48;93971.94;2075604;69;20227;-77
2024/02/02 01:40:16;;;;;;;20.05;10.50;;;;;;;2.73;79.15;93991.22;2072446;69;20144;-79
2024/02/02 01:42:42;;;;;;;22.10;10.82;;;;;;;2.67;80.04;93987.03;2075575;69;20175;-77
2024/02/02 01:45:08;;;;;;;17.08;9.98;;;;;;;2.64;79.82;93977.69;2075534;69;20184;-79
2024/02/02 01:47:34;;;;;;;17.17;9.93;;;;;;;2.68;79.53;93992.06;2075473;69;20131;-78
2024/02/02 01:50:01;;;;;;;21.13;9.38;;;;;;;2.61;79.64;93986.34;2072113;69;20151;-81
2024/02/02 01:52:27;;;;;;;13.30;8.15;;;;;;;2.60;79.34;93991.16;2075605;69;20183;-78
2024/02/02 01:54:53;;;;;;;16.15;7.90;;;;;;;2.58;79.60;93990.19;2075709;69;20147;-82
2024/02/02 01:57:20;;;;;;;12.98;7.65;;;;;;;2.48;80.85;93978.72;2075627;69;20136;-84
2024/02/02 01:59:46;;;;;;;13.52;8.05;;;;;;;2.67;80.32;93990.56;2075658;69;20136;-84
2024/02/02 02:02:13;;;;;;;14.32;7.93;;;;;;;2.58;79.56;93981.84;2075630;69;20163;-84
2024/02/02 02:04:42;;;;;;;14.30;8.23;;;;;;;2.41;80.56;93984.88;2069476;69;20242;-82
2024/02/02 02:07:09;;;;;;;15.02;8.80;;;;;;;2.61;79.82;94000.25;2075625;69;20533;-80
2024/02/02 02:09:35;;;;;;;15.20;8.38;;;;;;;2.59;79.38;93986.88;2075575;69;20287;-85
2024/02/02 02:12:01;;;;;;;17.55;8.27;;;;;;;2.59;79.78;93986.13;2075834;69;20275;-77
2024/02/02 02:14:27;;;;;;;13.43;7.13;;;;;;;2.57;79.65;93977.56;2077994;69;20533;-80
2024/02/02 02:16:53;;;;;;;12.60;7.15;;;;;;;2.65;79.67;93970.84;2076169;69;20148;-80
2024/02/02 02:19:19;;;;;;;10.15;6.32;;;;;;;2.68;80.16;93978.16;2075622;69;20136;-84
2024/02/02 02:21:44;;;;;;;13.63;7.53;;;;;;;2.32;82.32;93974.88;2075705;69;20606;-77
2024/02/02 02:24:10;;;;;;;10.35;7.22;;;;;;;2.46;82.54;93976.44;2075500;69;20237;-80
2024/02/02 02:26:37;;;;;;;11.07;6.97;;;;;;;2.62;81.81;93971.94;2075422;69;20244;-80
2024/02/02 02:29:03;;;;;;;13.57;6.68;;;;;;;2.65;81.14;93973.63;2075574;69;20217;-85
2024/02/02 02:31:29;;;;;;;10.05;6.57;;;;;;;2.61;80.65;93969.66;2072264;69;20198;-82
2024/02/02 02:33:55;;;;;;;10.90;6.13;;;;;;;2.68;80.19;93971.84;2072170;69;20617;-83
2024/02/02 02:36:20;;;;;;;11.00;5.82;;;;;;;2.72;80.46;93961.16;2075432;69;20148;-83
2024/02/02 02:38:48;;;;;;;10.70;6.10;;;;;;;2.52;81.05;93971.56;2075338;69;20692;-85
2024/02/02 02:41:14;;;;;;;9.63;5.95;;;;;;;2.45;80.25;93943.63;2075374;69;20140;-82
2024/02/02 02:43:41;;;;;;;11.23;6.15;;;;;;;2.40;80.38;93959.09;2075404;69;20160;-81
2024/02/02 02:46:07;;;;;;;9.65;6.20;;;;;;;2.42;81.30;93958.56;2075348;69;20634;-80
2024/02/02 02:48:33;;;;;;;14.23;6.20;;;;;;;2.33;81.84;93945.81;2075388;69;20155;-77
2024/02/02 02:50:59;;;;;;;11.18;6.07;;;;;;;2.43;80.55;93946.16;2075303;69;20537;-80
2024/02/02 02:53:25;;;;;;;9.52;5.55;;;;;;;2.25;80.13;93925.47;2075428;69;20139;-79
2024/02/02 02:55:51;;;;;;;12.82;5.97;;;;;;;2.34;80.24;93952.09;2075261;69;20151;-76
2024/02/02 02:58:16;;;;;;;8.88;5.53;;;;;;;2.37;79.97;93942.72;2075486;69;20187;-85
2024/02/02 03:00:43;;;;;;;10.27;5.22;;;;;;;2.28;81.22;93947.38;2075255;69;20143;-81
2024/02/02 03:03:11;;;;;;;9.40;5.20;;;;;;;2.44;82.88;93951.22;2075049;69;20151;-82
2024/02/02 03:05:40;;;;;;;7.25;5.00;;;;;;;2.30;82.28;93935.75;2069171;69;20236;-81
2024/02/02 03:08:07;;;;;;;7.38;4.95;;;;;;;2.43;82.95;93933.03;2075308;69;20135;-85
2024/02/02 03:10:33;;;;;;;7.32;4.53;;;;;;;2.39;82.14;93931.84;2075533;69;20152;-82
2024/02/02 03:12:59;;;;;;;8.75;5.40;;;;;;;2.17;82.54;93933.66;2075460;69;20195;-80
2024/02/02 03:15:25;;;;;;;8.85;5.03;;;;;;;2.22;82.19;93934.84;2069173;69;20172;-77
2024/02/02 03:17:50;;;;;;;7.45;4.55;;;;;;;2.31;81.36;93930.94;2075398;69;20688;-81
2024/02/02 03:20:16;;;;;;;7.72;4.45;;;;;;;2.20;81.36;93918.72;2075360;69;20171;-83
2024/02/02 03:22:42;;;;;;;8.02;5.03;;;;;;;2.33;82.79;93925.59;2075309;69;20593;-81
2024/02/02 03:25:09;;;;;;;7.95;4.10;;;;;;;2.49;81.44;93932.97;2075355;69;20294;-86
2024/02/02 03:27:35;;;;;;;7.03;4.10;;;;;;;2.49;81.78;93932.97;2075437;69;20183;-81
2024/02/02 03:30:01;;;;;;;5.40;3.63;;;;;;;2.47;79.57;93941.06;2075713;69;20150;-80
2024/02/02 03:32:27;;;;;;;5.70;3.95;;;;;;;2.15;83.88;93932.66;2075400;69;20259;-81
2024/02/02 03:34:53;;;;;;;6.50;4.40;;;;;;;2.13;83.01;93927.66;2071972;69;20331;-78
2024/02/02 03:37:20;;;;;;;8.15;4.53;;;;;;;2.27;81.23;93934.78;2071883;69;20211;-76
2024/02/02 03:39:46;;;;;;;7.88;4.32;;;;;;;2.16;81.25;93936.97;2075216;69;20155;-80
2024/02/02 03:42:12;;;;;;;7.20;4.25;;;;;;;2.24;80.74;93932.28;2071841;69;20132;-75
2024/02/02 03:44:38;;;;;;;9.00;4.68;;;;;;;1.75;82.30;93932.44;2076013;69;20168;-84
2024/02/02 03:47:04;;;;;;;7.45;4.38;;;;;;;2.07;81.38;93949.22;2075393;69;20590;-80
2024/02/02 03:49:32;;;;;;;7.78;4.13;;;;;;;2.07;81.15;93954.03;2075439;69;20148;-78
2024/02/02 03:52:00;;;;;;;8.05;3.75;;;;;;;2.08;81.44;93956.25;2075230;69;20139;-76
2024/02/02 03:54:26;;;;;;;8.23;4.55;;;;;;;2.10;81.10;93950.91;2075327;69;20229;-76
2024/02/02 03:56:52;;;;;;;5.82;3.70;;;;;;;2.14;81.22;93954.16;2071963;69;20139;-76
2024/02/02 03:59:18;;;;;;;7.28;3.92;;;;;;;1.99;80.53;93960.16;2075332;69;20140;-76
2024/02/02 04:01:44;;;;;;;6.80;4.10;;;;;;;1.95;80.22;93965.25;2075051;69;20620;-76
2024/02/02 04:04:09;;;;;;;5.97;3.88;;;;;;;2.03;79.96;93965.41;2074951;69;20188;-77
2024/02/02 04:06:35;;;;;;;7.00;4.53;;;;;;;1.89;80.77;93978.47;2071616;69;20213;-77
2024/02/02 04:09:01;;;;;;;7.38;4.38;;;;;;;1.90;80.67;93974.41;2075135;69;20158;-81
2024/02/02 04:11:27;;;;;;;5.97;3.95;;;;;;;2.02;80.39;93988.94;2075196;69;20627;-83
2024/02/02 04:13:53;;;;;;;7.95;4.50;;;;;;;2.07;80.41;93992.91;2075389;69;20235;-75
2024/02/02 04:16:19;;;;;;;9.00;5.32;;;;;;;1.97;80.13;93978.63;2075558;69;20231;-75
2024/02/02 04:18:44;;;;;;;7.25;5.03;;;;;;;2.11;80.37;93994.13;2075493;69;20467;-79
2024/02/02 04:21:13;;;;;;;8.95;4.70;;;;;;;2.12;80.08;93992.84;2076192;69;20234;-84
2024/02/02 04:23:39;;;;;;;7.30;4.20;;;;;;;2.01;80.85;93996.50;2075847;69;20155;-77
2024/02/02 04:26:05;;;;;;;7.90;4.90;;;;;;;2.10;79.97;93997.41;2075728;69;20140;-75
2024/02/02 04:28:30;;;;;;;7.72;4.53;;;;;;;2.07;80.75;93995.69;2075609;69;20152;-77
2024/02/02 04:30:56;;;;;;;8.32;5.28;;;;;;;2.04;80.38;93991.91;2075191;69;20232;-83
2024/02/02 04:33:22;;;;;;;7.38;4.43;;;;;;;2.10;80.34;93986.28;2074706;69;20151;-83
2024/02/02 04:35:47;;;;;;;6.85;4.13;;;;;;;2.02;80.10;93998.00;2075142;69;20217;-78
2024/02/02 04:38:17;;;;;;;9.23;4.25;;;;;;;2.09;79.92;93998.69;2072390;69;20143;-76
2024/02/02 04:40:43;;;;;;;6.45;4.15;;;;;;;1.96;81.07;94005.63;2075668;69;20152;-80
2024/02/02 04:43:08;;;;;;;9.82;4.80;;;;;;;1.90;80.81;94013.31;2074896;69;20171;-80
2024/02/02 04:45:34;;;;;;;8.57;4.60;;;;;;;2.09;80.54;94015.34;2075144;69;20148;-84
2024/02/02 04:48:00;;;;;;;9.68;5.05;;;;;;;2.07;80.57;94020.69;2075096;69;20166;-83
2024/02/02 04:50:28;;;;;;;8.43;5.40;;;;;;;2.00;80.34;94014.44;2075977;69;20243;-83
2024/02/02 04:52:54;;;;;;;9.35;5.72;;;;;;;2.10;80.36;94017.59;2075741;69;20168;-84
2024/02/02 04:55:19;;;;;;;8.25;5.55;;;;;;;2.03;80.60;94018.94;2075667;69;20227;-81
2024/02/02 04:57:45;;;;;;;11.55;7.15;;;;;;;2.11;80.15;94010.78;2075814;69;20602;-81
2024/02/02 05:00:13;;;;;;;12.23;6.20;;;;;;;2.14;80.22;94012.50;2072462;69;20230;-78
2024/02/02 05:02:39;;;;;;;9.15;5.93;;;;;;;2.21;80.00;94008.38;2075606;69;20148;-79
2024/02/02 05:05:07;;;;;;;11.45;5.45;;;;;;;2.23;79.77;93997.50;2075815;69;20155;-80
2024/02/02 05:07:35;;;;;;;9.38;5.07;;;;;;;2.15;80.10;93985.47;2075830;69;20227;-83
2024/02/02 05:10:01;;;;;;;8.88;5.55;;;;;;;2.21;80.33;93989.69;2075754;69;20148;-82
2024/02/02 05:12:27;;;;;;;9.70;5.10;;;;;;;2.29;80.19;93993.38;2075847;69;20143;-82
2024/02/02 05:14:53;;;;;;;7.93;5.25;;;;;;;2.34;79.19;93991.78;2077963;69;20560;-77
2024/02/02 05:17:18;;;;;;;11.82;6.38;;;;;;;1.90;82.05;94001.44;2077172;69;20159;-77
2024/02/02 05:19:44;;;;;;;9.40;5.85;;;;;;;2.17;81.02;94008.69;2075292;69;20155;-86
2024/02/02 05:22:09;;;;;;;9.15;5.90;;;;;;;2.26;80.22;93996.44;2075766;69;20255;-83
2024/02/02 05:24:35;;;;;;;10.90;5.10;;;;;;;2.24;80.33;93998.97;2075647;69;20144;-85
2024/02/02 05:27:01;;;;;;;8.68;5.25;;;;;;;2.29;80.02;93998.94;2072439;69;20202;-81
2024/02/02 05:29:27;;;;;;;8.73;5.38;;;;;;;2.29;80.18;93992.59;2075670;69;20144;-79
2024/02/02 05:31:54;;;;;;;9.50;5.60;;;;;;;2.33;80.06;93995.09;2075517;69;20144;-77
2024/02/02 05:34:20;;;;;;;7.80;4.85;;;;;;;2.42;80.12;94014.91;2075767;69;20334;-80
2024/02/02 05:36:45;;;;;;;9.63;5.03;;;;;;;2.41;80.44;94013.41;2075717;69;20563;-85
2024/02/02 05:39:11;;;;;;;9.68;5.53;;;;;;;2.21;80.87;94009.13;2075527;69;20154;-81
2024/02/02 05:41:37;;;;;;;10.55;6.80;;;;;;;2.29;81.03;94014.81;2075626;69;20657;-86
2024/02/02 05:44:02;;;;;;;10.63;6.63;;;;;;;2.40;80.35;94008.38;2075642;69;20151;-81
2024/02/02 05:46:28;;;;;;;12.95;7.50;;;;;;;2.35;80.86;94018.31;2075581;69;20212;-81
2024/02/02 05:48:54;;;;;;;14.02;8.45;;;;;;;2.42;80.31;94017.69;2075440;69;20144;-79
2024/02/02 05:51:19;;;;;;;13.10;6.55;;;;;;;2.50;80.15;94012.28;2075620;69;20156;-80
2024/02/02 05:53:45;;;;;;;9.60;6.55;;;;;;;2.49;80.20;94011.53;2075710;69;20152;-87
2024/02/02 05:56:11;;;;;;;12.07;6.78;;;;;;;2.49;80.12;94008.00;2075748;69;20180;-85
2024/02/02 05:58:36;;;;;;;12.55;6.80;;;;;;;2.55;80.32;94014.22;2075720;69;20190;-81
2024/02/02 06:01:02;;;;;;;11.65;6.55;;;;;;;2.44;80.23;94012.38;2075638;69;20204;-85
2024/02/02 06:03:28;;;;;;;13.25;7.72;;;;;;;2.51;80.48;94025.66;2075535;69;20670;-79
2024/02/02 06:05:55;;;;;;;15.60;7.97;;;;;;;2.39;80.27;94020.78;2075602;69;20218;-80
2024/02/02 06:08:20;;;;;;;19.55;9.40;;;;;;;2.27;82.13;94032.03;2075661;69;20522;-85
2024/02/02 06:10:48;;;;;;;15.30;8.40;;;;;;;2.46;80.38;94031.28;2075570;69;20166;-83
2024/02/02 06:13:17;;;;;;;14.70;8.18;;;;;;;2.58;80.55;94040.25;2075667;69;20179;-80
2024/02/02 06:15:43;;;;;;;15.45;8.35;;;;;;;2.36;81.16;94038.50;2075601;69;20591;-83
2024/02/02 06:18:09;;;;;;;17.13;10.82;;;;;;;2.47;80.42;94041.88;2072118;69;20136;-76
2024/02/02 06:20:35;;;;;;;20.10;9.82;;;;;;;2.58;79.58;94048.59;2075579;69;20204;-84
2024/02/02 06:23:00;;;;;;;41.15;23.95;;;;;;;2.31;81.00;94045.63;2075699;69;20213;-76
2024/02/02 06:25:26;;;;;;;47.42;25.45;;;;;;;2.17;81.10;94049.59;2075505;69;20156;-76
2024/02/02 06:27:52;;;;;;;30.98;16.27;;;;;;;2.39;80.93;94054.16;2075677;69;20159;-80
2024/02/02 06:30:17;;;;;;;19.10;10.02;;;;;;;2.37;80.82;94046.31;2075608;69;20615;-80
2024/02/02 06:32:48;;;;;;;18.25;10.80;;;;;;;2.50;80.59;94065.09;2075470;69;20175;-76
2024/02/02 06:35:15;;;;;;;26.80;13.23;;;;;;;2.59;80.16;94069.53;2075630;69;20234;-78
2024/02/02 06:37:41;;;;;;;20.63;11.00;;;;;;;2.28;81.42;94061.31;2075427;69;20649;-78
2024/02/02 06:40:07;;;;;;;18.33;11.48;;;;;;;2.49;80.81;94071.94;2075520;69;20195;-80
2024/02/02 06:42:33;;;;;;;27.70;15.88;;;;;;;2.43;80.45;94071.25;2075683;69;20323;-79
2024/02/02 06:44:58;;;;;;;24.33;13.52;;;;;;;2.54;80.75;94079.47;2077465;69;20227;-77
2024/02/02 06:47:24;;;;;;;27.20;13.85;;;;;;;2.54;80.50;94083.00;2077023;69;20144;-77
2024/02/02 06:49:50;;;;;;;24.02;14.15;;;;;;;2.57;80.78;94075.63;2075536;69;20526;-77
2024/02/02 06:52:16;;;;;;;21.73;13.02;;;;;;;2.57;80.74;94064.53;2075511;69;20148;-77
2024/02/02 06:54:43;;;;;;;24.40;13.30;;;;;;;2.62;80.78;94069.25;2075565;69;20140;-78
2024/02/02 06:57:09;;;;;;;36.55;17.77;;;;;;;2.70;80.23;94075.72;2075537;69;20619;-75
2024/02/02 06:59:36;;;;;;;53.38;22.38;;;;;;;2.50;81.41;94088.09;2075640;69;20194;-76
2024/02/02 07:02:18;;;;;;;47.83;21.13;;;;;;;2.74;81.07;94103.97;2075295;69;20168;-80
2024/02/02 07:04:44;;;;;;;23.58;12.68;;;;;;;2.90;80.05;94098.72;2075434;69;20148;-78
2024/02/02 07:07:10;;;;;;;22.13;11.27;;;;;;;3.03;80.01;94107.13;2075424;69;20135;-77
2024/02/02 07:09:37;;;;;;;18.17;9.93;;;;;;;2.91;80.57;94109.31;2075702;69;20140;-79
2024/02/02 07:12:09;;;;;;;17.70;10.40;;;;;;;3.06;78.64;94095.66;2075371;69;20143;-76
2024/02/02 07:14:43;;;;;;;19.20;11.23;;;;;;;2.70;81.64;94103.53;2075503;69;20147;-78
2024/02/02 07:17:39;;;;;;;22.45;12.07;;;;;;;2.91;81.19;94100.97;2075171;69;20147;-78
2024/02/02 07:20:29;;;;;;;18.38;11.10;;;;;;;3.15;80.54;94088.97;2075548;69;20148;-77
2024/02/02 07:22:58;;;;;;;20.55;11.48;;;;;;;3.15;80.38;94091.00;2067240;69;20231;-77
2024/02/02 07:25:25;;;;;;;18.55;11.13;;;;;;;3.27;79.81;94100.69;2075349;69;20147;-78
2024/02/02 07:27:56;;;;;;;17.17;10.48;;;;;;;3.28;78.59;94097.38;2075423;69;20152;-76
2024/02/02 07:30:30;;;;;;;16.83;10.70;;;;;;;3.38;79.16;94105.31;2072052;69;20526;-78
2024/02/02 07:33:00;;;;;;;17.42;8.70;;;;;;;3.27;79.27;94093.09;2075322;69;20136;-77
2024/02/02 07:35:32;;;;;;;33.33;18.33;;;;;;;3.07;80.44;94104.78;2075353;69;20581;-77
2024/02/02 07:38:03;;;;;;;51.75;25.38;;;;;;;2.74;82.66;94100.44;2075439;69;20184;-77
2024/02/02 07:41:07;;;;;;;40.05;21.55;;;;;;;2.87;83.26;94122.00;2071771;69;20171;-77
2024/02/02 07:43:33;;;;;;;33.97;19.00;;;;;;;3.36;81.07;94116.25;2075324;69;20162;-78
2024/02/02 07:46:00;;;;;;;32.13;17.67;;;;;;;3.56;80.11;94113.63;2075329;69;20156;-77
2024/02/02 07:48:26;;;;;;;25.95;14.45;;;;;;;3.69;79.36;94114.97;2075138;69;20155;-78
2024/02/02 07:50:53;;;;;;;23.02;13.40;;;;;;;3.12;81.23;94128.25;2075347;69;20152;-78
2024/02/02 07:53:19;;;;;;;24.40;12.60;;;;;;;3.53;81.37;94139.78;2075364;69;20155;-77
2024/02/02 07:55:45;;;;;;;28.45;12.93;;;;;;;3.42;80.42;94141.97;2075347;69;20215;-77
2024/02/02 07:58:10;;;;;;;23.05;13.07;;;;;;;3.44;81.36;94142.94;2075421;69;20139;-77
2024/02/02 08:00:36;;;;;;;18.55;10.52;;;;;;;3.80;80.01;94137.81;2075325;69;20144;-77
2024/02/02 08:03:02;;;;;;;18.77;10.35;;;;;;;4.08;79.06;94142.91;2075208;69;20160;-78
2024/02/02 08:05:28;;;;;;;19.77;10.23;;;;;;;4.15;76.99;94149.88;2075313;69;20158;-77
2024/02/02 08:07:54;;;;;;;17.90;9.75;;;;;;;4.21;78.08;94144.94;2071975;69;20231;-79
2024/02/02 08:10:20;;;;;;;16.73;9.05;;;;;;;4.28;76.85;94149.13;2075335;69;20154;-78
2024/02/02 08:12:45;;;;;;;14.88;8.65;;;;;;;4.38;77.17;94150.22;2075294;69;20144;-79
2024/02/02 08:15:11;;;;;;;12.57;8.18;;;;;;;4.42;76.40;94153.44;2075243;69;20136;-77
2024/02/02 08:17:37;;;;;;;13.60;8.23;;;;;;;4.53;76.94;94156.00;2071782;69;20681;-78
2024/02/02 08:20:03;;;;;;;15.55;9.05;;;;;;;4.25;77.76;94156.53;2075338;69;20160;-77
2024/02/02 08:22:30;;;;;;;15.45;9.10;;;;;;;4.48;77.04;94162.44;2075288;69;20143;-77
2024/02/02 08:24:56;;;;;;;17.63;10.15;;;;;;;4.35;75.64;94165.22;2075444;69;20187;-77
2024/02/02 08:27:21;;;;;;;20.70;10.60;;;;;;;4.54;76.42;94154.00;2075336;69;20615;-79
2024/02/02 08:29:48;;;;;;;20.10;10.57;;;;;;;4.37;77.18;94161.91;2075270;69;20187;-78
2024/02/02 08:32:15;;;;;;;17.05;10.35;;;;;;;4.40;77.49;94156.03;2075232;69;20151;-77
2024/02/02 08:34:41;;;;;;;20.88;9.88;;;;;;;4.49;77.00;94160.41;2071929;69;20124;-78
2024/02/02 08:37:08;;;;;;;20.95;10.95;;;;;;;4.61;76.06;94164.47;2075341;69;20746;-78
2024/02/02 08:39:34;;;;;;;22.42;12.40;;;;;;;4.41;76.13;94157.53;2072154;69;20182;-79
2024/02/02 08:42:06;;;;;;;18.63;9.93;;;;;;;4.82;75.23;94170.91;2075239;69;20151;-77
2024/02/02 08:44:33;;;;;;;15.30;9.50;;;;;;;5.06;74.14;94181.09;2075280;69;20184;-77
2024/02/02 08:46:59;;;;;;;21.25;11.63;;;;;;;3.75;79.05;94182.47;2075218;69;20168;-78
2024/02/02 08:49:41;;;;;;;21.88;11.30;;;;;;;4.14;78.96;94175.50;2071772;69;20164;-78
2024/02/02 08:52:12;;;;;;;23.95;12.23;;;;;;;4.42;77.24;94170.16;2075227;69;20128;-78
2024/02/02 08:54:45;;;;;;;23.17;12.23;;;;;;;4.92;75.66;94178.84;2075239;69;20160;-78
2024/02/02 08:57:11;;;;;;;22.77;13.23;;;;;;;4.65;76.86;94176.06;2075194;69;20218;-77
2024/02/02 08:59:43;;;;;;;21.55;12.65;;;;;;;5.01;75.80;94164.47;2075615;69;20209;-76
2024/02/02 09:02:58;;;;;;;21.13;12.93;;;;;;;5.05;75.73;94164.88;2076482;69;20236;-77
2024/02/02 09:05:32;;;;;;;25.73;13.50;;;;;;;4.65;76.02;94153.75;2070385;69;20166;-78
2024/02/02 09:08:16;;;;;;;20.40;11.65;;;;;;;4.94;75.78;94157.47;2078582;69;20143;-77
2024/02/02 09:10:43;;;;;;;20.17;11.15;;;;;;;5.16;75.03;94150.69;2073646;69;20225;-77
2024/02/02 09:13:20;;;;;;;20.27;11.38;;;;;;;5.30;74.49;94146.56;2076754;69;20163;-77
2024/02/02 09:15:46;;;;;;;18.45;11.20;;;;;;;5.21;74.01;94149.06;2076927;69;20606;-77
2024/02/02 09:18:30;;;;;;;18.30;11.43;;;;;;;5.30;73.96;94152.13;2076965;69;20139;-77
2024/02/02 09:20:57;;;;;;;15.23;9.43;;;;;;;5.43;73.61;94150.59;2076868;69;20155;-77
2024/02/02 09:23:24;;;;;;;15.52;9.55;;;;;;;5.25;74.41;94155.81;2076336;69;20208;-77
2024/02/02 09:25:49;;;;;;;18.95;10.63;;;;;;;4.77;75.39;94148.72;2076515;69;20140;-75
2024/02/02 09:28:25;;;;;;;20.08;10.55;;;;;;;5.37;74.57;94150.00;2077084;69;20301;-76
2024/02/02 09:31:03;;;;;;;16.95;10.23;;;;;;;5.42;73.56;94149.09;2076598;69;20183;-77
2024/02/02 09:33:31;;;;;;;21.42;11.18;;;;;;;5.42;73.43;94143.53;2076270;69;20154;-76
2024/02/02 09:36:06;;;;;;;23.10;10.80;;;;;;;5.56;73.66;94142.19;2073578;69;20172;-77
2024/02/02 09:38:33;;;;;;;17.42;10.77;;;;;;;5.79;73.64;94140.34;2076544;69;20535;-77
2024/02/02 09:41:01;;;;;;;24.40;10.88;;;;;;;5.98;73.13;94125.44;2077011;69;20144;-77
2024/02/02 09:44:00;;;;;;;17.67;10.52;;;;;;;6.04;72.58;94128.84;2077025;69;20210;-77
2024/02/02 09:46:47;;;;;;;23.30;12.77;;;;;;;5.82;73.63;94118.94;2077012;69;20598;-76
2024/02/02 09:49:18;;;;;;;42.45;17.02;;;;;;;5.84;74.31;94119.88;2074431;69;20151;-77
2024/02/02 09:52:12;;;;;;;19.33;10.05;;;;;;;5.89;73.53;94112.66;2076142;69;20136;-77
2024/02/02 09:54:47;;;;;;;14.25;7.32;;;;;;;6.13;72.88;94116.41;2077689;69;20243;-77
2024/02/02 09:57:38;;;;;;;11.43;7.22;;;;;;;6.34;72.28;94111.53;2076857;69;20598;-76
2024/02/02 10:00:26;;;;;;;15.98;9.05;;;;;;;6.46;71.89;94107.16;2076399;69;20136;-76
2024/02/02 10:03:08;;;;;;;12.02;7.53;;;;;;;6.57;71.56;94106.09;2076767;69;20594;-77
2024/02/02 10:05:50;;;;;;;11.93;6.25;;;;;;;6.46;71.38;94101.56;2076871;69;20175;-78
2024/02/02 10:08:44;;;;;;;11.05;6.70;;;;;;;6.21;72.10;94092.06;2076978;69;20144;-77
2024/02/02 10:11:18;;;;;;;;;;;;;;;6.51;71.85;94102.69;2075683;69;20217;-78
2024/02/02 10:13:59;;;;;;;20.70;10.02;;;;;;;5.85;74.37;94092.69;2075469;69;20051;-77
2024/02/02 10:16:45;;;;;;;12.40;7.40;;;;;;;5.65;74.24;94110.22;2075475;69;20148;-78
2024/02/02 10:19:23;;;;;;;14.57;8.30;;;;;;;6.12;72.98;94104.47;2075283;69;20238;-77
2024/02/02 10:22:09;;;;;;;16.50;9.05;;;;;;;5.49;74.68;94098.13;2075635;69;20160;-77
2024/02/02 10:24:42;;;;;;;14.32;7.50;;;;;;;5.75;74.31;94106.41;2072328;69;20148;-77
2024/02/02 10:27:22;;;;;;;13.70;8.15;;;;;;;6.30;72.78;94103.50;2075461;69;20147;-77
2024/02/02 10:29:50;;;;;;;16.25;7.85;;;;;;;6.02;72.79;94107.03;2075632;69;20164;-77
2024/02/02 10:32:40;;;;;;;15.45;8.48;;;;;;;6.13;72.40;94111.56;2075456;69;20194;-76
2024/02/02 10:35:39;;;;;;;16.45;8.48;;;;;;;6.32;71.75;94114.13;2075514;69;20200;-77
2024/02/02 10:38:23;;;;;;;17.50;8.38;;;;;;;6.57;71.43;94114.47;2060519;69;20220;-76
2024/02/02 10:40:49;;;;;;;11.00;7.03;;;;;;;6.62;70.77;94103.13;2075269;69;20517;-77
2024/02/02 10:43:38;;;;;;;13.90;7.72;;;;;;;6.55;71.23;94109.44;2075204;69;20189;-77
2024/02/02 10:46:09;;;;;;;15.93;8.38;;;;;;;6.19;71.66;94103.06;2075235;69;20555;-77
2024/02/02 10:48:44;;;;;;;17.40;8.15;;;;;;;6.31;71.42;94101.44;2075264;69;20235;-76
2024/02/02 10:51:29;;;;;;;16.88;9.07;;;;;;;6.36;71.65;94106.88;2075338;69;20155;-76
2024/02/02 10:54:28;;;;;;;13.80;7.63;;;;;;;6.08;73.15;94102.03;2075358;69;20159;-76
2024/02/02 10:57:21;;;;;;;13.48;7.85;;;;;;;6.67;71.66;94095.88;2075295;69;20594;-76
2024/02/02 11:00:07;;;;;;;13.40;7.82;;;;;;;6.78;71.92;94089.97;2076973;69;20245;-77
2024/02/02 11:02:52;;;;;;;21.45;11.02;;;;;;;6.78;71.56;94087.16;2076550;69;20250;-77
2024/02/02 11:05:23;;;;;;;24.50;12.43;;;;;;;6.78;71.72;94081.56;2078708;69;20251;-79
2024/02/02 11:08:00;;;;;;;19.77;11.70;;;;;;;6.79;70.68;94063.47;2078692;69;20139;-78
2024/02/02 11:10:37;;;;;;;17.52;10.18;;;;;;;6.99;70.32;94070.25;2075549;69;20164;-78
2024/02/02 11:13:16;;;;;;;15.52;8.88;;;;;;;6.94;70.45;94081.63;2078641;69;20154;-78
2024/02/02 11:15:49;;;;;;;19.50;9.77;;;;;;;7.06;69.88;94077.94;2078565;69;20174;-78
2024/02/02 11:18:14;;;;;;;13.88;8.48;;;;;;;7.02;70.00;94079.59;2078709;69;20167;-77
2024/02/02 11:21:03;;;;;;;15.13;8.80;;;;;;;7.12;69.40;94084.13;2078703;69;20575;-77
2024/02/02 11:23:35;;;;;;;14.55;9.13;;;;;;;7.09;69.54;94076.06;2076306;69;20154;-78
2024/02/02 11:26:10;;;;;;;13.83;8.93;;;;;;;7.15;69.19;94065.47;2078622;69;20152;-78
2024/02/02 11:28:54;;;;;;;15.43;9.68;;;;;;;7.14;69.50;94067.50;2078705;69;20255;-77
2024/02/02 11:31:20;;;;;;;14.45;9.20;;;;;;;7.17;69.01;94071.25;2078671;69;20152;-77
2024/02/02 11:33:54;;;;;;;18.40;9.60;;;;;;;7.24;69.03;94062.13;2078485;69;20618;-78
2024/02/02 11:36:35;;;;;;;20.58;11.55;;;;;;;7.35;69.43;94061.78;2078561;69;20152;-77
2024/02/02 11:39:21;;;;;;;22.73;12.93;;;;;;;7.23;68.96;94059.88;2078556;69;20143;-77
2024/02/02 11:41:47;;;;;;;23.13;12.38;;;;;;;7.18;69.71;94066.38;2078692;69;20250;-77